Time;durP1;ratioP1;P1;durP2;ratioP2;P2;SDS_P1;SDS_P2;PMS_P1;PMS_P2;Temp;Humidity;BMP_temperature;BMP_pressure;BME280_temperature;BME280_humidity;BME280_pressure;Samples;Min_cycle;Max_cycle;Signal;HPM_P1;HPM_P2
2023/09/14 00:01:25;;;;;;;;;;;13.90;99.90;;;;;;4996433;28;19922;-43
2023/09/14 00:03:52;;;;;;;;;;;13.90;99.90;;;;;;4992037;28;19929;-43
2023/09/14 00:06:18;;;;;;;;;;;13.80;99.90;;;;;;4993994;28;19929;-43
2023/09/14 00:08:43;;;;;;;;;;;13.80;99.90;;;;;;4996444;28;19922;-43
2023/09/14 00:11:09;;;;;;;;;;;13.80;99.90;;;;;;4996223;28;20282;-43
2023/09/14 00:13:34;;;;;;;;;;;13.80;99.90;;;;;;4996356;28;20025;-43
2023/09/14 00:16:00;;;;;;;;;;;13.70;99.90;;;;;;4995974;28;19976;-43
2023/09/14 00:18:27;;;;;;;;;;;13.70;99.90;;;;;;4995711;28;19922;-43
2023/09/14 00:20:53;;;;;;;;;;;13.70;99.90;;;;;;4996332;28;19922;-44
2023/09/14 00:23:20;;;;;;;;;;;13.70;99.90;;;;;;4996194;28;19926;-44
2023/09/14 00:25:45;;;;;;;;;;;13.70;99.90;;;;;;4996220;28;20025;-43
2023/09/14 00:28:11;;;;;;;;;;;13.70;99.90;;;;;;4995917;28;19976;-44
2023/09/14 00:30:37;;;;;;;;;;;13.70;99.90;;;;;;4995971;28;20345;-45
2023/09/14 00:33:02;;;;;;;;;;;13.70;99.90;;;;;;4995979;28;20353;-43
2023/09/14 00:35:28;;;;;;;;;;;13.70;99.90;;;;;;4995931;28;19929;-44
2023/09/14 00:37:53;;;;;;;;;;;13.60;99.90;;;;;;4995958;28;19980;-43
2023/09/14 00:40:19;;;;;;;;;;;13.60;99.90;;;;;;4995714;28;20428;-43
2023/09/14 00:42:46;;;;;;;;;;;13.60;99.90;;;;;;4995940;28;20329;-43
2023/09/14 00:45:15;;;;;;;;;;;13.60;99.90;;;;;;4995650;28;19929;-43
2023/09/14 00:47:42;;;;;;;;;;;13.60;99.90;;;;;;4995753;28;19975;-43
2023/09/14 00:50:08;;;;;;;;;;;13.60;99.90;;;;;;4995727;28;19926;-43
2023/09/14 00:52:35;;;;;;;;;;;13.60;99.90;;;;;;4995689;28;20314;-44
2023/09/14 00:55:02;;;;;;;;;;;13.60;99.90;;;;;;4995546;28;20407;-43
2023/09/14 00:57:28;;;;;;;;;;;13.70;99.90;;;;;;4995530;28;19948;-44
2023/09/14 00:59:53;;;;;;;;;;;13.70;99.90;;;;;;4978014;28;20391;-43
2023/09/14 01:02:19;;;;;;;;;;;13.70;99.90;;;;;;4978422;28;19922;-42
2023/09/14 01:04:45;;;;;;;;;;;13.70;99.90;;;;;;4995337;28;19928;-44
2023/09/14 01:07:10;;;;;;;;;;;13.70;99.90;;;;;;4995383;28;19928;-43
2023/09/14 01:09:36;;;;;;;;;;;13.70;99.90;;;;;;4995324;28;20253;-43
2023/09/14 01:12:03;;;;;;;;;;;13.70;99.90;;;;;;4995203;28;19922;-43
2023/09/14 01:14:32;;;;;;;;;;;13.70;99.90;;;;;;4995166;28;19925;-43
2023/09/14 01:17:05;;;;;;;;;;;13.70;99.90;;;;;;4995226;28;19972;-44
2023/09/14 01:19:43;;;;;;;;;;;13.70;99.90;;;;;;4995204;28;19975;-43
2023/09/14 01:22:22;;;;;;;;;;;13.70;99.90;;;;;;4995376;28;19925;-43
2023/09/14 01:24:52;;;;;;;;;;;13.70;99.90;;;;;;4994902;28;19994;-43
2023/09/14 01:27:18;;;;;;;;;;;13.70;99.90;;;;;;4995030;28;19922;-43
2023/09/14 01:29:43;;;;;;;;;;;13.70;99.90;;;;;;4994310;28;19922;-43
2023/09/14 01:32:09;;;;;;;;;;;13.70;99.90;;;;;;4995105;28;19976;-43
2023/09/14 01:34:35;;;;;;;;;;;13.70;99.90;;;;;;4994875;28;20349;-43
2023/09/14 01:37:03;;;;;;;;;;;13.70;99.90;;;;;;4977709;28;19945;-45
2023/09/14 01:39:29;;;;;;;;;;;13.80;99.90;;;;;;4994576;28;19921;-43
2023/09/14 01:41:56;;;;;;;;;;;13.70;99.90;;;;;;4995088;28;19976;-45
2023/09/14 01:44:26;;;;;;;;;;;13.70;99.90;;;;;;4994766;28;19960;-43
2023/09/14 01:46:52;;;;;;;;;;;13.70;99.90;;;;;;4994636;28;19968;-43
2023/09/14 01:49:18;;;;;;;;;;;13.80;99.90;;;;;;4994715;28;19925;-44
2023/09/14 01:51:43;;;;;;;;;;;13.70;99.90;;;;;;4994737;28;19969;-43
2023/09/14 01:54:09;;;;;;;;;;;13.70;99.90;;;;;;4994454;28;19922;-43
2023/09/14 01:56:35;;;;;;;;;;;13.70;99.90;;;;;;5010047;28;19921;-43
2023/09/14 01:59:01;;;;;;;;;;;13.70;99.90;;;;;;4994640;28;20363;-43
2023/09/14 02:01:26;;;;;;;;;;;13.70;99.90;;;;;;4994505;28;19926;-43
2023/09/14 02:03:52;;;;;;;;;;;13.70;99.90;;;;;;4994566;28;19968;-43
2023/09/14 02:06:17;;;;;;;;;;;13.70;99.90;;;;;;4990425;28;19926;-43
2023/09/14 02:08:43;;;;;;;;;;;13.70;99.90;;;;;;4994278;28;19922;-43
2023/09/14 02:11:09;;;;;;;;;;;13.70;99.90;;;;;;4994543;28;19928;-43
2023/09/14 02:13:37;;;;;;;;;;;13.70;99.90;;;;;;4994425;28;19921;-43
2023/09/14 02:16:03;;;;;;;;;;;13.70;99.90;;;;;;4977329;28;19968;-43
2023/09/14 02:18:29;;;;;;;;;;;13.70;99.90;;;;;;4994484;28;19979;-43
2023/09/14 02:20:54;;;;;;;;;;;13.60;99.90;;;;;;4994369;28;19922;-42
2023/09/14 02:23:20;;;;;;;;;;;13.60;99.90;;;;;;4994140;28;19968;-43
2023/09/14 02:25:46;;;;;;;;;;;13.60;99.90;;;;;;4994814;28;20371;-42
2023/09/14 02:28:13;;;;;;;;;;;13.60;99.90;;;;;;4994323;28;19976;-43
2023/09/14 02:30:39;;;;;;;;;;;13.60;99.90;;;;;;4994274;28;20409;-43
2023/09/14 02:33:06;;;;;;;;;;;13.60;99.90;;;;;;4994106;28;19922;-43
2023/09/14 02:35:32;;;;;;;;;;;13.50;99.90;;;;;;4994171;28;19922;-43
2023/09/14 02:37:57;;;;;;;;;;;13.60;99.90;;;;;;4994132;28;19929;-43
2023/09/14 02:40:23;;;;;;;;;;;13.50;99.90;;;;;;4995599;28;19973;-43
2023/09/14 02:42:48;;;;;;;;;;;13.50;99.90;;;;;;4998087;28;19922;-43
2023/09/14 02:45:14;;;;;;;;;;;13.50;99.90;;;;;;4997976;28;20023;-43
2023/09/14 02:47:40;;;;;;;;;;;13.50;99.90;;;;;;4997965;28;19922;-44
2023/09/14 02:50:05;;;;;;;;;;;13.50;99.90;;;;;;4997796;28;19922;-43
2023/09/14 02:52:31;;;;;;;;;;;13.50;99.90;;;;;;4997845;28;19928;-43
2023/09/14 02:54:56;;;;;;;;;;;13.50;99.90;;;;;;4997858;28;19928;-43
2023/09/14 02:57:22;;;;;;;;;;;13.50;99.90;;;;;;4997805;28;19980;-42
2023/09/14 02:59:48;;;;;;;;;;;13.50;99.90;;;;;;4997782;28;19925;-43
2023/09/14 03:02:13;;;;;;;;;;;13.40;99.90;;;;;;4997712;28;19999;-43
2023/09/14 03:04:39;;;;;;;;;;;13.50;99.90;;;;;;4997429;28;20027;-43
2023/09/14 03:07:04;;;;;;;;;;;13.50;99.90;;;;;;4997230;28;19969;-42
2023/09/14 03:09:30;;;;;;;;;;;13.40;99.90;;;;;;4997723;28;19928;-43
2023/09/14 03:11:55;;;;;;;;;;;13.30;99.90;;;;;;4997500;28;19922;-43
2023/09/14 03:14:21;;;;;;;;;;;13.40;99.90;;;;;;4997377;28;19929;-43
2023/09/14 03:16:48;;;;;;;;;;;13.30;99.90;;;;;;4997468;28;19963;-42
2023/09/14 03:19:14;;;;;;;;;;;13.30;99.90;;;;;;4997358;28;19929;-43
2023/09/14 03:21:39;;;;;;;;;;;13.30;99.90;;;;;;4997196;28;19922;-42
2023/09/14 03:24:05;;;;;;;;;;;13.30;99.90;;;;;;4997226;28;19922;-43
2023/09/14 03:26:31;;;;;;;;;;;13.30;99.90;;;;;;4997304;28;19977;-43
2023/09/14 03:28:56;;;;;;;;;;;13.30;99.90;;;;;;4997152;28;19921;-43
2023/09/14 03:31:22;;;;;;;;;;;13.30;99.90;;;;;;4997241;28;19922;-43
2023/09/14 03:33:49;;;;;;;;;;;13.20;99.90;;;;;;4997099;28;19926;-43
2023/09/14 03:36:18;;;;;;;;;;;13.20;99.90;;;;;;4996921;28;19969;-42
2023/09/14 03:38:44;;;;;;;;;;;13.20;99.90;;;;;;5012531;28;19922;-43
2023/09/14 03:41:11;;;;;;;;;;;13.20;99.90;;;;;;4996996;28;20278;-42
2023/09/14 03:43:37;;;;;;;;;;;13.20;99.90;;;;;;4996897;28;19922;-42
2023/09/14 03:46:02;;;;;;;;;;;13.20;99.90;;;;;;4995767;28;20322;-42
2023/09/14 03:48:28;;;;;;;;;;;13.20;99.90;;;;;;4996811;28;19953;-43
2023/09/14 03:50:57;;;;;;;;;;;13.20;99.90;;;;;;4979377;28;19984;-43
2023/09/14 03:53:22;;;;;;;;;;;13.20;99.90;;;;;;4995936;28;19922;-43
2023/09/14 03:55:48;;;;;;;;;;;13.20;99.90;;;;;;4996774;28;19933;-44
2023/09/14 03:58:13;;;;;;;;;;;13.10;99.90;;;;;;4996678;28;19968;-44
2023/09/14 04:00:39;;;;;;;;;;;13.10;99.90;;;;;;4996814;28;20029;-43
2023/09/14 04:03:04;;;;;;;;;;;13.00;99.90;;;;;;4996593;28;20367;-43
2023/09/14 04:05:30;;;;;;;;;;;13.00;99.90;;;;;;4996307;28;20087;-43
2023/09/14 04:07:55;;;;;;;;;;;13.00;99.90;;;;;;4996503;28;19929;-43
2023/09/14 04:10:21;;;;;;;;;;;13.00;99.90;;;;;;4996419;28;19921;-44
2023/09/14 04:12:47;;;;;;;;;;;13.00;99.90;;;;;;4996315;28;20016;-43
2023/09/14 04:15:12;;;;;;;;;;;12.90;99.90;;;;;;4996296;28;19922;-43
2023/09/14 04:17:38;;;;;;;;;;;12.90;99.90;;;;;;4996324;28;19926;-43
2023/09/14 04:20:09;;;;;;;;;;;12.80;99.90;;;;;;4996047;28;19991;-43
2023/09/14 04:22:36;;;;;;;;;;;12.80;99.90;;;;;;4996531;28;19921;-43
2023/09/14 04:25:01;;;;;;;;;;;12.80;99.90;;;;;;4996320;28;20353;-43
2023/09/14 04:27:27;;;;;;;;;;;12.70;99.90;;;;;;4996281;28;19976;-43
2023/09/14 04:29:52;;;;;;;;;;;12.70;99.90;;;;;;4996093;28;19975;-43
2023/09/14 04:32:18;;;;;;;;;;;12.70;99.90;;;;;;4996048;28;20025;-43
2023/09/14 04:34:43;;;;;;;;;;;12.60;99.90;;;;;;4995823;28;19921;-43
2023/09/14 04:37:09;;;;;;;;;;;12.60;99.90;;;;;;5011427;28;19949;-43
2023/09/14 04:39:34;;;;;;;;;;;12.60;99.90;;;;;;4995913;28;19925;-42
2023/09/14 04:42:00;;;;;;;;;;;12.50;99.90;;;;;;4995880;28;19968;-43
2023/09/14 04:44:26;;;;;;;;;;;12.50;99.90;;;;;;4995869;28;19976;-43
2023/09/14 04:46:51;;;;;;;;;;;12.50;99.90;;;;;;4995526;28;19936;-43
2023/09/14 04:49:17;;;;;;;;;;;12.50;99.90;;;;;;4995535;28;19922;-43
2023/09/14 04:51:42;;;;;;;;;;;12.50;99.90;;;;;;4996107;28;19921;-45
2023/09/14 04:54:08;;;;;;;;;;;12.40;99.90;;;;;;5010734;28;19988;-44
2023/09/14 04:56:33;;;;;;;;;;;12.40;99.90;;;;;;4995535;28;19922;-42
2023/09/14 04:59:00;;;;;;;;;;;12.40;99.90;;;;;;4995658;28;19922;-43
2023/09/14 05:01:25;;;;;;;;;;;12.40;99.90;;;;;;4995439;28;19928;-42
2023/09/14 05:03:51;;;;;;;;;;;12.30;99.90;;;;;;4995242;28;19921;-43
2023/09/14 05:06:16;;;;;;;;;;;12.30;99.90;;;;;;4993175;28;19922;-42
2023/09/14 05:08:42;;;;;;;;;;;12.20;99.90;;;;;;4995665;28;19921;-42
2023/09/14 05:11:08;;;;;;;;;;;12.20;99.90;;;;;;4978066;28;19940;-43
2023/09/14 05:13:33;;;;;;;;;;;12.20;99.90;;;;;;4995163;28;19922;-42
2023/09/14 05:15:59;;;;;;;;;;;12.20;99.90;;;;;;4995218;28;20331;-43
2023/09/14 05:18:24;;;;;;;;;;;12.20;99.90;;;;;;4995159;28;20298;-43
2023/09/14 05:20:50;;;;;;;;;;;12.10;99.90;;;;;;4995025;28;20449;-42
2023/09/14 05:23:15;;;;;;;;;;;12.10;99.90;;;;;;4995220;28;19972;-42
2023/09/14 05:25:41;;;;;;;;;;;12.10;99.90;;;;;;4977776;28;19922;-42
2023/09/14 05:28:08;;;;;;;;;;;12.00;99.90;;;;;;4995090;28;19976;-42
2023/09/14 05:30:34;;;;;;;;;;;12.00;99.90;;;;;;4994792;28;20379;-43
2023/09/14 05:33:00;;;;;;;;;;;12.00;99.90;;;;;;4994904;28;19921;-42
2023/09/14 05:35:26;;;;;;;;;;;12.00;99.90;;;;;;4995379;28;20282;-43
2023/09/14 05:37:52;;;;;;;;;;;12.00;99.90;;;;;;4977735;28;19921;-42
2023/09/14 05:40:17;;;;;;;;;;;12.00;99.90;;;;;;4994900;28;19921;-43
2023/09/14 05:42:43;;;;;;;;;;;12.00;99.90;;;;;;4994689;28;19921;-42
2023/09/14 05:45:09;;;;;;;;;;;12.10;99.90;;;;;;4994821;28;19922;-43
2023/09/14 05:47:35;;;;;;;;;;;12.10;99.90;;;;;;4994684;28;19922;-43
2023/09/14 05:50:01;;;;;;;;;;;12.10;99.90;;;;;;4977648;28;19929;-42
2023/09/14 05:52:27;;;;;;;;;;;12.10;99.90;;;;;;4994622;28;19922;-42
2023/09/14 05:54:52;;;;;;;;;;;12.20;99.90;;;;;;4961599;28;20028;-42
2023/09/14 05:57:18;;;;;;;;;;;12.20;99.90;;;;;;4994680;28;19933;-43
2023/09/14 05:59:43;;;;;;;;;;;12.20;99.90;;;;;;4994462;28;20401;-43
2023/09/14 06:02:09;;;;;;;;;;;12.20;99.90;;;;;;4994494;28;19929;-43
2023/09/14 06:04:34;;;;;;;;;;;12.30;99.90;;;;;;4994279;28;19921;-42
2023/09/14 06:07:00;;;;;;;;;;;12.30;99.90;;;;;;4994144;28;20016;-42
2023/09/14 06:09:26;;;;;;;;;;;12.30;99.90;;;;;;4994981;28;19977;-43
2023/09/14 06:11:52;;;;;;;;;;;12.30;99.90;;;;;;4994543;28;19928;-43
2023/09/14 06:14:18;;;;;;;;;;;12.40;99.90;;;;;;4994527;28;19925;-42
2023/09/14 06:16:43;;;;;;;;;;;12.40;99.90;;;;;;4998174;28;20354;-42
2023/09/14 06:19:09;;;;;;;;;;;12.40;99.90;;;;;;4998245;28;20068;-42
2023/09/14 06:21:35;;;;;;;;;;;12.50;99.90;;;;;;4965373;28;19968;-42
2023/09/14 06:24:01;;;;;;;;;;;12.50;99.90;;;;;;4981122;28;19921;-43
2023/09/14 06:26:27;;;;;;;;;;;12.50;99.90;;;;;;4998259;28;20371;-42
2023/09/14 06:28:53;;;;;;;;;;;12.60;99.90;;;;;;4998528;28;19968;-43
2023/09/14 06:31:19;;;;;;;;;;;12.60;99.90;;;;;;4981213;28;19921;-43
2023/09/14 06:33:44;;;;;;;;;;;12.70;99.90;;;;;;4998216;28;19925;-43
2023/09/14 06:36:10;;;;;;;;;;;12.70;99.90;;;;;;4998466;28;19925;-42
2023/09/14 06:38:35;;;;;;;;;;;12.80;99.90;;;;;;4998162;28;19928;-42
2023/09/14 06:41:01;;;;;;;;;;;12.80;99.90;;;;;;4998416;28;19948;-42
2023/09/14 06:43:26;;;;;;;;;;;12.90;99.90;;;;;;5013494;28;20434;-42
2023/09/14 06:45:52;;;;;;;;;;;12.90;99.90;;;;;;4998037;28;19922;-43
2023/09/14 06:48:17;;;;;;;;;;;12.90;99.90;;;;;;4997729;28;19979;-43
2023/09/14 06:50:43;;;;;;;;;;;13.00;99.90;;;;;;4964529;28;19922;-42
2023/09/14 06:53:09;;;;;;;;;;;13.00;99.90;;;;;;4997636;28;19929;-43
2023/09/14 06:55:38;;;;;;;;;;;13.10;99.90;;;;;;4997935;28;19922;-43
2023/09/14 06:58:04;;;;;;;;;;;13.10;99.90;;;;;;4997678;28;19921;-42
2023/09/14 07:00:30;;;;;;;;;;;13.20;99.90;;;;;;4997804;28;20309;-43
2023/09/14 07:02:56;;;;;;;;;;;13.20;99.90;;;;;;4997773;28;20008;-42
2023/09/14 07:05:22;;;;;;;;;;;13.20;99.90;;;;;;4995519;28;20039;-42
2023/09/14 07:07:48;;;;;;;;;;;13.30;99.90;;;;;;4997927;28;20025;-43
2023/09/14 07:10:13;;;;;;;;;;;13.40;99.90;;;;;;4997611;28;19921;-42
2023/09/14 07:12:39;;;;;;;;;;;13.50;99.90;;;;;;4997470;28;19928;-43
2023/09/14 07:15:05;;;;;;;;;;;13.50;99.90;;;;;;4997250;28;19922;-42
2023/09/14 07:17:30;;;;;;;;;;;13.50;99.90;;;;;;4997378;28;19929;-42
2023/09/14 07:19:56;;;;;;;;;;;13.60;99.90;;;;;;4997515;28;19922;-42
2023/09/14 07:22:21;;;;;;;;;;;13.60;99.90;;;;;;4997348;28;20322;-43
2023/09/14 07:24:47;;;;;;;;;;;13.70;99.90;;;;;;4997211;28;19921;-42
2023/09/14 07:27:14;;;;;;;;;;;13.70;99.90;;;;;;4979044;28;19948;-42
2023/09/14 07:29:39;;;;;;;;;;;13.80;99.90;;;;;;4980212;28;19921;-42
2023/09/14 07:32:05;;;;;;;;;;;13.90;99.90;;;;;;4997054;28;20334;-43
2023/09/14 07:34:31;;;;;;;;;;;14.00;99.90;;;;;;4980261;28;19922;-43
2023/09/14 07:36:56;;;;;;;;;;;14.10;99.90;;;;;;4979747;28;19929;-42
2023/09/14 07:39:22;;;;;;;;;;;14.10;99.90;;;;;;4997106;28;19921;-43
2023/09/14 07:41:47;;;;;;;;;;;14.10;99.90;;;;;;4996937;28;20022;-42
2023/09/14 07:44:13;;;;;;;;;;;14.20;99.90;;;;;;4996801;28;19921;-43
2023/09/14 07:46:42;;;;;;;;;;;14.20;99.90;;;;;;4996901;28;19922;-42
2023/09/14 07:49:07;;;;;;;;;;;14.30;99.90;;;;;;4997226;28;20282;-43
2023/09/14 07:51:33;;;;;;;;;;;14.40;99.90;;;;;;4996823;28;19921;-43
2023/09/14 07:53:59;;;;;;;;;;;14.40;99.90;;;;;;4996733;28;19932;-43
2023/09/14 07:56:25;;;;;;;;;;;14.40;99.90;;;;;;4996734;28;19949;-43
2023/09/14 07:58:53;;;;;;;;;;;14.50;99.90;;;;;;4996663;28;19922;-43
2023/09/14 08:01:19;;;;;;;;;;;14.50;99.90;;;;;;5011839;28;19960;-42
2023/09/14 08:03:44;;;;;;;;;;;14.60;99.90;;;;;;4996874;28;19973;-42
2023/09/14 08:06:10;;;;;;;;;;;14.70;99.90;;;;;;4996343;28;20382;-42
2023/09/14 08:08:35;;;;;;;;;;;14.70;99.90;;;;;;4996615;28;19922;-43
2023/09/14 08:11:01;;;;;;;;;;;14.70;99.90;;;;;;4996472;28;19925;-42
2023/09/14 08:13:27;;;;;;;;;;;14.80;99.90;;;;;;4996457;28;19921;-43
2023/09/14 08:15:52;;;;;;;;;;;14.80;99.90;;;;;;4996366;28;20333;-42
2023/09/14 08:18:20;;;;;;;;;;;14.90;99.90;;;;;;4996465;28;20024;-43
2023/09/14 08:20:49;;;;;;;;;;;14.90;99.90;;;;;;4996362;28;20298;-43
2023/09/14 08:23:15;;;;;;;;;;;15.00;99.90;;;;;;4996257;28;19929;-43
2023/09/14 08:25:45;;;;;;;;;;;15.10;99.90;;;;;;4996281;28;19972;-43
2023/09/14 08:28:15;;;;;;;;;;;15.10;99.90;;;;;;4996270;28;20330;-43
2023/09/14 08:30:42;;;;;;;;;;;15.20;99.90;;;;;;4995964;28;19922;-43
2023/09/14 08:33:07;;;;;;;;;;;15.30;99.90;;;;;;4996276;28;19968;-43
2023/09/14 08:35:34;;;;;;;;;;;15.30;99.90;;;;;;4995993;28;19922;-43
2023/09/14 08:38:02;;;;;;;;;;;15.30;99.90;;;;;;4995695;28;19922;-43
2023/09/14 08:40:29;;;;;;;;;;;15.40;99.90;;;;;;4979108;28;19929;-42
2023/09/14 08:42:55;;;;;;;;;;;15.40;99.90;;;;;;4995580;28;20387;-43
2023/09/14 08:45:23;;;;;;;;;;;15.40;99.90;;;;;;4995870;28;19921;-42
2023/09/14 08:47:49;;;;;;;;;;;15.40;99.90;;;;;;4995746;28;20024;-43
2023/09/14 08:50:16;;;;;;;;;;;15.40;99.90;;;;;;4995848;28;19944;-43
2023/09/14 08:52:43;;;;;;;;;;;15.40;99.90;;;;;;4995645;28;20017;-43
2023/09/14 08:55:10;;;;;;;;;;;15.40;99.90;;;;;;4995541;28;19926;-43
2023/09/14 08:57:36;;;;;;;;;;;15.40;99.90;;;;;;4995413;28;20383;-43
2023/09/14 09:00:08;;;;;;;;;;;15.50;99.90;;;;;;4995627;28;19972;-43
2023/09/14 09:02:35;;;;;;;;;;;15.50;99.90;;;;;;4995524;28;19928;-43
2023/09/14 09:05:02;;;;;;;;;;;15.50;99.90;;;;;;4995492;28;20461;-42
2023/09/14 09:07:28;;;;;;;;;;;15.60;99.90;;;;;;4992949;28;19922;-43
2023/09/14 09:09:53;;;;;;;;;;;15.60;99.90;;;;;;4995315;28;19933;-43
2023/09/14 09:12:19;;;;;;;;;;;15.70;99.90;;;;;;4995030;28;19921;-43
2023/09/14 09:14:45;;;;;;;;;;;15.70;99.90;;;;;;4995282;28;20349;-43
2023/09/14 09:17:11;;;;;;;;;;;15.80;99.90;;;;;;4995324;28;19922;-43
2023/09/14 09:19:47;;;;;;;;;;;15.80;99.90;;;;;;4995254;28;19922;-42
2023/09/14 09:22:17;;;;;;;;;;;15.80;99.90;;;;;;4995072;28;19921;-43
2023/09/14 09:24:42;;;;;;;;;;;15.90;99.90;;;;;;4995011;28;19922;-43
2023/09/14 09:27:23;;;;;;;;;;;15.90;99.90;;;;;;4995643;28;19929;-43
2023/09/14 09:29:56;;;;;;;;;;;16.00;99.90;;;;;;4995103;28;19926;-43
2023/09/14 09:32:22;;;;;;;;;;;16.10;99.90;;;;;;4994973;28;20394;-42
2023/09/14 09:34:47;;;;;;;;;;;16.10;99.90;;;;;;4994883;28;19980;-42
2023/09/14 09:37:13;;;;;;;;;;;16.10;99.90;;;;;;4994797;28;20290;-43
2023/09/14 09:39:40;;;;;;;;;;;16.20;99.90;;;;;;4995085;28;19922;-43
2023/09/14 09:42:06;;;;;;;;;;;16.30;99.90;;;;;;4994907;28;19921;-42
2023/09/14 09:44:32;;;;;;;;;;;16.40;99.90;;;;;;4994707;28;20011;-43
2023/09/14 09:46:57;;;;;;;;;;;16.40;99.90;;;;;;4994844;28;19925;-42
2023/09/14 09:49:24;;;;;;;;;;;16.50;99.90;;;;;;4994396;28;20278;-43
2023/09/14 09:51:50;;;;;;;;;;;16.50;99.90;;;;;;4994450;28;20021;-43
2023/09/14 09:54:19;;;;;;;;;;;16.50;99.90;;;;;;4994595;28;19921;-43
2023/09/14 09:56:46;;;;;;;;;;;16.60;99.90;;;;;;4994559;28;20374;-44
2023/09/14 09:59:14;;;;;;;;;;;16.60;99.90;;;;;;4994711;28;19922;-43
2023/09/14 10:01:40;;;;;;;;;;;16.70;99.90;;;;;;4994866;28;19929;-42
2023/09/14 10:04:09;;;;;;;;;;;16.80;99.90;;;;;;4994605;28;19928;-42
2023/09/14 10:06:36;;;;;;;;;;;16.90;99.90;;;;;;4992257;28;19921;-45
2023/09/14 10:09:06;;;;;;;;;;;17.00;99.90;;;;;;4994613;28;19925;-43
2023/09/14 10:11:32;;;;;;;;;;;17.10;99.90;;;;;;4994656;28;20271;-42
2023/09/14 10:14:00;;;;;;;;;;;17.10;99.90;;;;;;4994462;28;19925;-43
2023/09/14 10:16:26;;;;;;;;;;;17.20;99.90;;;;;;4994623;28;19921;-42
2023/09/14 10:18:54;;;;;;;;;;;17.30;99.90;;;;;;4977140;28;19925;-42
2023/09/14 10:21:21;;;;;;;;;;;17.40;99.90;;;;;;4994409;28;20035;-43
2023/09/14 10:23:47;;;;;;;;;;;17.60;99.90;;;;;;4993119;28;19921;-42
2023/09/14 10:26:13;;;;;;;;;;;17.70;99.90;;;;;;4994510;28;19921;-42
2023/09/14 10:28:39;;;;;;;;;;;17.90;99.90;;;;;;4994420;28;19929;-42
2023/09/14 10:31:06;;;;;;;;;;;17.90;99.90;;;;;;4977284;28;19922;-42
2023/09/14 10:33:32;;;;;;;;;;;18.10;99.90;;;;;;4994362;28;19976;-44
2023/09/14 10:35:59;;;;;;;;;;;18.20;99.90;;;;;;4994772;28;19921;-42
2023/09/14 10:38:25;;;;;;;;;;;18.30;99.90;;;;;;4994253;28;19928;-42
2023/09/14 10:40:53;;;;;;;;;;;18.30;99.90;;;;;;4994249;28;19921;-42
2023/09/14 10:43:19;;;;;;;;;;;18.30;99.90;;;;;;4994323;28;20362;-43
2023/09/14 10:45:46;;;;;;;;;;;18.30;99.90;;;;;;4994156;28;19921;-43
2023/09/14 10:48:15;;;;;;;;;;;18.40;99.90;;;;;;4993866;28;19929;-42
2023/09/14 10:50:41;;;;;;;;;;;18.50;99.90;;;;;;4994214;28;19921;-43
2023/09/14 10:53:06;;;;;;;;;;;18.50;99.90;;;;;;4976882;28;19922;-42
2023/09/14 10:55:35;;;;;;;;;;;18.50;99.90;;;;;;5009461;28;20008;-42
2023/09/14 10:58:01;;;;;;;;;;;18.50;99.90;;;;;;4994038;28;19921;-42
2023/09/14 11:00:31;;;;;;;;;;;18.40;99.90;;;;;;4994202;28;19921;-43
2023/09/14 11:02:57;;;;;;;;;;;18.40;99.90;;;;;;4997938;28;20367;-43
2023/09/14 11:05:23;;;;;;;;;;;18.60;99.90;;;;;;4997717;28;19929;-42
2023/09/14 11:08:00;;;;;;;;;;;18.70;99.90;;;;;;4995698;28;20008;-43
2023/09/14 11:10:26;;;;;;;;;;;18.90;99.90;;;;;;4997733;28;19921;-43
2023/09/14 11:12:51;;;;;;;;;;;19.00;99.90;;;;;;4997414;28;19921;-42
2023/09/14 11:15:17;;;;;;;;;;;19.20;99.90;;;;;;4997516;28;19928;-42
2023/09/14 11:17:47;;;;;;;;;;;19.20;99.90;;;;;;4997577;28;19926;-42
2023/09/14 11:20:22;;;;;;;;;;;19.20;99.90;;;;;;4997529;28;19921;-42
2023/09/14 11:22:50;;;;;;;;;;;19.10;99.90;;;;;;4997543;28;19989;-43
2023/09/14 11:25:29;;;;;;;;;;;18.90;99.90;;;;;;4980223;28;19922;-42
2023/09/14 11:27:55;;;;;;;;;;;18.80;99.90;;;;;;4997110;28;20370;-42
2023/09/14 11:30:21;;;;;;;;;;;18.60;99.90;;;;;;4997339;28;19968;-42
2023/09/14 11:32:47;;;;;;;;;;;18.50;99.90;;;;;;4997133;28;20016;-43
2023/09/14 11:35:13;;;;;;;;;;;18.40;99.90;;;;;;4997198;28;19961;-43
2023/09/14 11:37:42;;;;;;;;;;;18.30;99.90;;;;;;4997159;28;19996;-43
2023/09/14 11:40:12;;;;;;;;;;;18.20;99.90;;;;;;4997010;28;20319;-43
2023/09/14 11:42:56;;;;;;;;;;;18.20;99.90;;;;;;4997060;28;19925;-42
2023/09/14 11:45:22;;;;;;;;;;;18.10;99.90;;;;;;4997009;28;19922;-43
2023/09/14 11:47:49;;;;;;;;;;;18.00;99.90;;;;;;4997014;28;19998;-43
2023/09/14 11:50:15;;;;;;;;;;;17.90;99.90;;;;;;4996787;28;20004;-42
2023/09/14 11:52:40;;;;;;;;;;;17.90;99.90;;;;;;4996705;28;19979;-43
2023/09/14 11:55:06;;;;;;;;;;;17.90;99.90;;;;;;4996731;28;19973;-43
2023/09/14 11:57:32;;;;;;;;;;;17.80;99.90;;;;;;4997246;28;20087;-43
2023/09/14 11:59:59;;;;;;;;;;;17.80;99.90;;;;;;4997032;28;20397;-43
2023/09/14 12:02:24;;;;;;;;;;;17.80;99.90;;;;;;4996652;28;20017;-43
2023/09/14 12:04:51;;;;;;;;;;;17.90;99.90;;;;;;4996603;28;19957;-43
2023/09/14 12:07:19;;;;;;;;;;;18.00;99.90;;;;;;4992397;28;20275;-43
2023/09/14 12:09:44;;;;;;;;;;;18.10;99.90;;;;;;4996347;28;19976;-43
2023/09/14 12:12:23;;;;;;;;;;;18.10;99.90;;;;;;4996245;28;19921;-43
2023/09/14 12:14:50;;;;;;;;;;;18.10;99.90;;;;;;4996475;28;19925;-43
2023/09/14 12:17:20;;;;;;;;;;;18.10;99.90;;;;;;4996444;28;20275;-42
2023/09/14 12:19:46;;;;;;;;;;;18.10;99.90;;;;;;4996251;28;19926;-43
2023/09/14 12:22:11;;;;;;;;;;;18.00;99.90;;;;;;4996195;28;19921;-43
2023/09/14 12:24:37;;;;;;;;;;;18.10;99.90;;;;;;4996302;28;20279;-42
2023/09/14 12:27:03;;;;;;;;;;;18.00;99.90;;;;;;4996156;28;20272;-42
2023/09/14 12:29:28;;;;;;;;;;;18.00;99.90;;;;;;4996495;28;19932;-43
2023/09/14 12:31:54;;;;;;;;;;;18.10;99.90;;;;;;4996016;28;19945;-43
2023/09/14 12:34:20;;;;;;;;;;;18.20;99.90;;;;;;4996019;28;19921;-42
2023/09/14 12:36:45;;;;;;;;;;;18.30;99.90;;;;;;4995740;28;19922;-43
2023/09/14 12:39:15;;;;;;;;;;;18.50;99.90;;;;;;4978724;28;19926;-42
2023/09/14 12:41:41;;;;;;;;;;;18.70;99.90;;;;;;4978993;28;19928;-43
2023/09/14 12:44:06;;;;;;;;;;;18.90;99.90;;;;;;4995839;28;19928;-42
2023/09/14 12:46:32;;;;;;;;;;;19.10;99.90;;;;;;4995829;28;20012;-45
2023/09/14 12:49:01;;;;;;;;;;;19.30;99.90;;;;;;4995592;28;19925;-43
2023/09/14 12:51:26;;;;;;;;;;;19.40;99.90;;;;;;4995694;28;19922;-43
2023/09/14 12:53:54;;;;;;;;;;;19.50;99.90;;;;;;4962396;28;19928;-43
2023/09/14 12:56:20;;;;;;;;;;;19.40;99.90;;;;;;4995566;28;19922;-43
2023/09/14 12:58:46;;;;;;;;;;;19.30;99.90;;;;;;4995449;28;20264;-43
2023/09/14 13:01:11;;;;;;;;;;;19.30;99.90;;;;;;4995315;28;19921;-44
2023/09/14 13:03:38;;;;;;;;;;;19.30;99.90;;;;;;4995587;28;20371;-42
2023/09/14 13:06:04;;;;;;;;;;;19.40;99.90;;;;;;4995516;28;20291;-43
2023/09/14 13:08:41;;;;;;;;;;;19.50;99.90;;;;;;4995520;28;19922;-42
2023/09/14 13:11:07;;;;;;;;;;;19.40;99.90;;;;;;4995316;28;19929;-42
2023/09/14 13:13:33;;;;;;;;;;;19.30;99.90;;;;;;4995192;28;19922;-42
2023/09/14 13:16:00;;;;;;;;;;;19.30;99.90;;;;;;4995231;28;20370;-42
2023/09/14 13:18:25;;;;;;;;;;;19.30;99.90;;;;;;4978082;28;20371;-42
2023/09/14 13:20:51;;;;;;;;;;;19.30;99.90;;;;;;4995201;28;19922;-42
2023/09/14 13:23:18;;;;;;;;;;;19.30;99.90;;;;;;4995198;28;20366;-42
2023/09/14 13:25:43;;;;;;;;;;;19.30;99.90;;;;;;4995186;28;19968;-43
2023/09/14 13:28:11;;;;;;;;;;;19.30;99.90;;;;;;4994874;28;19926;-43
2023/09/14 13:30:36;;;;;;;;;;;19.30;99.90;;;;;;4994836;28;20016;-42
2023/09/14 13:33:02;;;;;;;;;;;19.30;99.90;;;;;;4977621;28;20033;-42
2023/09/14 13:35:28;;;;;;;;;;;19.40;99.90;;;;;;4995255;28;19944;-43
2023/09/14 13:37:57;;;;;;;;;;;19.40;99.90;;;;;;4994972;28;19933;-43
2023/09/14 13:40:23;;;;;;;;;;;19.50;99.90;;;;;;4994980;28;19922;-43
2023/09/14 13:42:50;;;;;;;;;;;19.50;99.90;;;;;;4977853;28;19921;-43
2023/09/14 13:45:20;;;;;;;;;;;19.60;99.90;;;;;;4977400;28;19922;-43
2023/09/14 13:47:47;;;;;;;;;;;19.60;99.90;;;;;;4994716;28;19928;-42
2023/09/14 13:50:14;;;;;;;;;;;19.60;99.90;;;;;;4994959;28;20405;-43
2023/09/14 13:52:39;;;;;;;;;;;19.60;99.90;;;;;;4994711;28;19928;-43
2023/09/14 13:55:06;;;;;;;;;;;19.50;99.90;;;;;;4994654;28;19921;-44
2023/09/14 13:57:31;;;;;;;;;;;19.50;99.90;;;;;;4977789;28;19921;-43
2023/09/14 13:59:57;;;;;;;;;;;19.30;99.90;;;;;;4994728;28;19945;-42
2023/09/14 14:02:23;;;;;;;;;;;19.30;99.90;;;;;;4994428;28;19945;-43
2023/09/14 14:04:49;;;;;;;;;;;19.30;99.90;;;;;;4994661;28;19926;-42
2023/09/14 14:07:15;;;;;;;;;;;19.30;99.90;;;;;;4977346;28;19922;-42
2023/09/14 14:09:41;;;;;;;;;;;19.30;99.90;;;;;;4994480;28;19969;-43
2023/09/14 14:12:07;;;;;;;;;;;19.30;99.90;;;;;;4994462;28;19929;-43